createdAt,value
2023-05-09T00:01:43.361Z,100830.66
2023-05-09T00:04:17.397Z,100815.69
2023-05-09T00:06:48.731Z,100814.88
2023-05-09T00:09:20.529Z,100813.50
2023-05-09T00:11:51.935Z,100819.78
2023-05-09T00:14:23.513Z,100796.66
2023-05-09T00:16:55.266Z,100786.84
2023-05-09T00:19:25.882Z,100785.50
2023-05-09T00:21:56.997Z,100769.19
2023-05-09T00:24:28.207Z,100761.91
2023-05-09T00:26:59.900Z,100764.28
2023-05-09T00:29:31.134Z,100754.53
2023-05-09T00:32:02.832Z,100762.16
2023-05-09T00:34:35.587Z,100746.69
2023-05-09T00:37:07.992Z,100755.06
2023-05-09T00:39:39.534Z,100734.44
2023-05-09T00:42:10.666Z,100739.69
2023-05-09T00:44:41.997Z,100738.56
2023-05-09T00:47:13.543Z,100740.22
2023-05-09T00:49:45.090Z,100731.78
2023-05-09T00:52:16.184Z,100722.84
2023-05-09T00:54:47.648Z,100723.16
2023-05-09T00:57:18.754Z,100712.56
2023-05-09T00:59:50.226Z,100710.13
2023-05-09T01:02:22.156Z,100704.16
2023-05-09T01:04:54.118Z,100706.88
2023-05-09T01:07:37.849Z,100647.75
2023-05-09T01:10:12.018Z,100661.81
2023-05-09T01:13:06.006Z,100655.59
2023-05-09T01:15:49.113Z,100657.75
2023-05-09T01:18:34.931Z,100648.59
2023-05-09T01:21:10.130Z,100623.91
2023-05-09T01:23:47.649Z,100610.91
2023-05-09T01:26:41.514Z,100608.78
2023-05-09T01:29:30.666Z,100601.16
2023-05-09T01:32:04.548Z,100613.59
2023-05-09T01:34:36.942Z,100595.22
2023-05-09T01:37:09.688Z,100612.59
2023-05-09T01:39:43.386Z,100615.53
2023-05-09T01:42:15.828Z,100615.25
2023-05-09T01:44:48.660Z,100622.06
2023-05-09T01:47:21.511Z,100606.31
2023-05-09T01:49:53.158Z,100607.13
2023-05-09T01:52:23.748Z,100597.63
2023-05-09T01:54:54.951Z,100592.47
2023-05-09T01:57:27.075Z,100598.41
2023-05-09T01:59:58.753Z,100577.81
2023-05-09T02:02:30.154Z,100562.09
2023-05-09T02:05:02.401Z,100559.38
2023-05-09T02:07:34.203Z,100552.31
2023-05-09T02:10:06.514Z,100554.75
2023-05-09T02:12:42.543Z,100547.19
2023-05-09T02:15:14.180Z,100534.97
2023-05-09T02:17:46.104Z,100540.94
2023-05-09T02:20:18.884Z,100523.81
2023-05-09T02:22:50.618Z,100512.72
2023-05-09T02:25:22.260Z,100493.44
2023-05-09T02:27:54.838Z,100512.19
2023-05-09T02:30:28.186Z,100483.94
2023-05-09T02:33:04.819Z,100482.03
2023-05-09T02:35:37.126Z,100476.34
2023-05-09T02:38:10.822Z,100502.13
2023-05-09T02:40:43.464Z,100510.25
2023-05-09T02:43:16.531Z,100493.19
2023-05-09T02:45:47.912Z,100488.78
2023-05-09T02:48:19.633Z,100466.06
2023-05-09T02:50:50.526Z,100426.16
2023-05-09T02:53:21.816Z,100373.22
2023-05-09T02:55:53.091Z,100310.56
2023-05-09T02:58:24.428Z,100197.94
2023-05-09T03:00:55.747Z,100217.19
2023-05-09T03:03:27.154Z,100297.78
2023-05-09T03:05:59.777Z,100339.06
2023-05-09T03:08:31.239Z,100342.03
2023-05-09T03:11:02.566Z,100388.41
2023-05-09T03:13:34.540Z,100391.34
2023-05-09T03:16:06.823Z,100392.97
2023-05-09T03:18:38.436Z,100423.63
2023-05-09T03:21:10.696Z,100431.53
2023-05-09T03:23:41.810Z,100425.53
2023-05-09T03:26:12.788Z,100435.59
2023-05-09T03:28:44.107Z,100425.84
2023-05-09T03:31:15.588Z,100405.78
2023-05-09T03:33:47.279Z,100398.75
2023-05-09T03:36:19.512Z,100397.66
2023-05-09T03:38:51.182Z,100392.22
2023-05-09T03:41:24.462Z,100383.84
2023-05-09T03:43:56.496Z,100353.22
2023-05-09T03:46:28.915Z,100335.84
2023-05-09T03:49:00.380Z,100329.09
2023-05-09T03:51:32.264Z,100289.31
2023-05-09T03:54:05.541Z,100316.41
2023-05-09T03:56:36.761Z,100323.16
2023-05-09T03:59:09.203Z,100307.13
2023-05-09T04:01:41.393Z,100284.97
2023-05-09T04:04:12.647Z,100312.34
2023-05-09T04:06:44.740Z,100295.28
2023-05-09T04:09:16.490Z,100311.56
2023-05-09T04:11:49.922Z,100308.88
2023-05-09T04:14:21.082Z,100336.50
2023-05-09T04:16:52.441Z,100332.44
2023-05-09T04:19:24.193Z,100344.63
2023-05-09T04:21:55.402Z,100322.41
2023-05-09T04:24:26.917Z,100304.22
2023-05-09T04:26:58.154Z,100306.06
2023-05-09T04:29:30.551Z,100319.69
2023-05-09T04:32:04.288Z,100320.44
2023-05-09T04:34:34.763Z,100313.91
2023-05-09T04:37:12.692Z,100306.91
2023-05-09T04:39:45.034Z,100299.38
2023-05-09T04:42:22.819Z,100299.88
2023-05-09T04:44:54.281Z,100281.75
2023-05-09T04:47:26.317Z,100304.97
2023-05-09T04:49:57.873Z,100318.78
2023-05-09T04:52:29.450Z,100326.34
2023-05-09T04:55:04.404Z,100326.34
2023-05-09T04:57:41.912Z,100333.38
2023-05-09T05:00:14.555Z,100338.81
2023-05-09T05:02:46.608Z,100351.28
2023-05-09T05:05:17.621Z,100343.97
2023-05-09T05:07:49.391Z,100331.25
2023-05-09T05:10:27.563Z,100334.72
2023-05-09T05:13:06.134Z,100326.84
2023-05-09T05:15:38.192Z,100330.88
2023-05-09T05:18:10.727Z,100321.63
2023-05-09T05:20:45.609Z,100309.94
2023-05-09T05:23:17.486Z,100298.09
2023-05-09T05:25:49.125Z,100304.25
2023-05-09T05:28:20.984Z,100299.31
2023-05-09T05:30:52.656Z,100289.34
2023-05-09T05:33:24.085Z,100266.06
2023-05-09T05:35:56.716Z,100275.25
2023-05-09T05:38:28.100Z,100259.72
2023-05-09T05:41:01.088Z,100235.06
2023-05-09T05:43:34.105Z,100212.22
2023-05-09T05:46:06.284Z,100205.41
2023-05-09T05:48:38.638Z,100218.06
2023-05-09T05:51:10.090Z,100207.78
2023-05-09T05:53:43.613Z,100198.84
2023-05-09T05:56:15.188Z,100185.16
2023-05-09T05:58:47.078Z,100184.88
2023-05-09T06:01:18.910Z,100179.97
2023-05-09T06:03:56.199Z,100183.72
2023-05-09T06:06:30.340Z,100198.91
2023-05-09T06:09:02.065Z,100191.56
2023-05-09T06:11:33.271Z,100197.75
2023-05-09T06:14:04.747Z,100194.75
2023-05-09T06:16:36.674Z,100187.75
2023-05-09T06:19:08.258Z,100165.25
2023-05-09T06:21:39.747Z,100135.66
2023-05-09T06:24:16.951Z,100104.00
2023-05-09T06:26:52.569Z,100097.16
2023-05-09T06:29:24.119Z,100081.69
2023-05-09T06:31:55.279Z,100073.78
2023-05-09T06:34:26.656Z,100035.50
2023-05-09T06:36:58.187Z,100039.03
2023-05-09T06:39:29.580Z,100044.53
2023-05-09T06:42:00.748Z,100047.91
2023-05-09T06:44:36.419Z,100083.16
2023-05-09T06:47:08.208Z,100111.47
2023-05-09T06:49:39.409Z,100124.16
2023-05-09T06:52:11.830Z,100129.09
2023-05-09T06:54:43.591Z,100137.28
2023-05-09T06:57:15.076Z,100127.25
2023-05-09T06:59:46.637Z,100122.59
2023-05-09T07:02:18.191Z,100124.28
2023-05-09T07:04:49.957Z,100127.56
2023-05-09T07:07:21.416Z,100142.16
2023-05-09T07:10:00.663Z,100138.94
2023-05-09T07:12:38.904Z,100114.75
2023-05-09T07:15:11.235Z,100115.56
2023-05-09T07:17:42.920Z,100118.03
2023-05-09T07:20:14.593Z,100102.25
2023-05-09T07:22:45.747Z,100123.94
2023-05-09T07:25:17.279Z,100118.78
2023-05-09T07:27:48.809Z,100116.59
2023-05-09T07:30:20.409Z,100115.22
2023-05-09T07:32:51.949Z,100113.53
2023-05-09T07:35:23.827Z,100106.19
2023-05-09T07:37:55.452Z,100114.84
2023-05-09T07:40:26.897Z,100112.97
2023-05-09T07:42:58.445Z,100101.94
2023-05-09T07:45:29.766Z,100115.97
2023-05-09T07:48:00.999Z,100121.38
2023-05-09T07:50:50.450Z,100115.22
2023-05-09T07:53:22.340Z,100099.50
2023-05-09T07:55:54.459Z,100106.25
2023-05-09T07:58:25.926Z,100097.59
2023-05-09T08:00:58.966Z,100105.75
2023-05-09T08:03:30.250Z,100097.66
2023-05-09T08:06:01.663Z,100112.34
2023-05-09T08:08:33.612Z,100117.72
2023-05-09T08:11:11.833Z,100110.72
2023-05-09T08:13:43.269Z,100111.47
2023-05-09T08:16:14.780Z,100112.91
2023-05-09T08:18:45.918Z,100105.56
2023-05-09T08:21:18.055Z,100093.84
2023-05-09T08:23:50.634Z,100097.06
2023-05-09T08:26:28.822Z,100090.78
2023-05-09T08:29:09.095Z,100084.59
2023-05-09T08:31:40.460Z,100080.78
2023-05-09T08:34:12.370Z,100081.81
2023-05-09T08:36:47.095Z,100074.88
2023-05-09T08:39:19.706Z,100076.28
2023-05-09T08:41:51.708Z,100079.16
2023-05-09T08:44:24.889Z,100067.25
2023-05-09T08:46:58.734Z,100057.31
2023-05-09T08:49:36.391Z,100036.47
2023-05-09T08:52:08.179Z,100006.97
2023-05-09T08:54:39.990Z,99983.91
2023-05-09T08:57:11.479Z,99979.09
2023-05-09T08:59:42.852Z,99983.25
2023-05-09T09:02:16.026Z,99976.72
2023-05-09T09:04:48.506Z,99964.03
2023-05-09T09:07:20.285Z,99965.41
2023-05-09T09:09:52.205Z,99951.97
2023-05-09T09:12:25.269Z,99955.44
2023-05-09T09:14:57.472Z,99960.09
2023-05-09T09:17:29.664Z,99974.78
2023-05-09T09:20:03.315Z,99952.56
2023-05-09T09:22:36.179Z,99956.88
2023-05-09T09:25:07.657Z,99951.91
2023-05-09T09:27:39.085Z,99927.69
2023-05-09T09:30:12.338Z,99922.56
2023-05-09T09:32:43.926Z,99910.53
2023-05-09T09:35:15.043Z,99918.22
2023-05-09T09:37:46.725Z,99912.03
2023-05-09T09:40:17.984Z,99884.06
2023-05-09T09:42:51.136Z,99861.25
2023-05-09T09:45:23.090Z,99869.09
2023-05-09T09:47:55.369Z,99866.31
2023-05-09T09:50:27.157Z,99878.78
2023-05-09T09:52:58.300Z,99886.31
2023-05-09T09:55:30.853Z,99867.31
2023-05-09T09:58:02.769Z,99873.78
2023-05-09T10:00:34.402Z,99864.84
2023-05-09T10:03:05.344Z,99875.47
2023-05-09T10:05:36.283Z,99866.16
2023-05-09T10:08:09.169Z,99837.91
2023-05-09T10:10:39.894Z,99850.31
2023-05-09T10:13:13.383Z,99819.06
2023-05-09T10:15:53.156Z,99824.91
2023-05-09T10:18:26.953Z,99820.91
2023-05-09T10:20:58.000Z,99824.56
2023-05-09T10:23:29.066Z,99814.78
2023-05-09T10:26:22.964Z,99800.91
2023-05-09T10:28:53.655Z,99784.91
2023-05-09T10:31:25.184Z,99807.75
2023-05-09T10:33:57.199Z,99786.31
2023-05-09T10:36:28.058Z,99783.97
2023-05-09T10:38:58.409Z,99790.03
2023-05-09T10:41:31.491Z,99794.94
2023-05-09T10:44:02.261Z,99806.09
2023-05-09T10:46:33.364Z,99820.38
2023-05-09T10:49:04.520Z,99804.19
2023-05-09T10:51:35.495Z,99796.34
2023-05-09T10:54:09.448Z,99782.66
2023-05-09T10:56:41.486Z,99768.66
2023-05-09T10:59:48.247Z,99760.94
2023-05-09T11:02:21.298Z,99753.78
2023-05-09T11:04:55.403Z,99744.56
2023-05-09T11:07:27.163Z,99737.91
2023-05-09T11:10:10.007Z,99736.50
2023-05-09T11:12:59.628Z,99738.88
2023-05-09T11:15:30.540Z,99729.66
2023-05-09T11:18:11.644Z,99718.81
2023-05-09T11:20:46.057Z,99717.16
2023-05-09T11:23:23.420Z,99703.81
2023-05-09T11:25:54.586Z,99697.28
2023-05-09T11:28:29.887Z,99696.25
2023-05-09T11:31:13.544Z,99684.91
2023-05-09T11:33:44.939Z,99688.22
2023-05-09T11:36:26.849Z,99674.84
2023-05-09T11:39:06.204Z,99654.84
2023-05-09T11:41:44.653Z,99648.09
2023-05-09T11:44:19.424Z,99641.16
2023-05-09T11:46:51.082Z,99656.63
2023-05-09T11:49:22.080Z,99656.34
2023-05-09T11:51:52.781Z,99660.56
2023-05-09T11:54:26.652Z,99659.84
2023-05-09T11:56:57.241Z,99673.03
2023-05-09T11:59:28.040Z,99662.66
2023-05-09T12:01:58.532Z,99658.56
2023-05-09T12:04:30.806Z,99652.81
2023-05-09T12:07:01.750Z,99654.94
2023-05-09T12:09:35.931Z,99655.53
2023-05-09T12:12:13.249Z,99648.59
2023-05-09T12:14:44.039Z,99640.25
2023-05-09T12:17:15.508Z,99638.03
2023-05-09T12:19:46.443Z,99631.50
2023-05-09T12:22:17.245Z,99627.50
2023-05-09T12:24:47.706Z,99635.66
2023-05-09T12:27:20.150Z,99637.84
2023-05-09T12:29:51.119Z,99634.91
2023-05-09T12:32:22.689Z,99627.06
2023-05-09T12:34:53.706Z,99623.84
2023-05-09T12:37:24.309Z,99629.25
2023-05-09T12:40:20.799Z,99617.59
2023-05-09T12:42:51.317Z,99621.69
2023-05-09T12:45:22.122Z,99624.78
2023-05-09T12:47:55.895Z,99620.16
2023-05-09T12:50:33.061Z,99613.31
2023-05-09T12:53:04.749Z,99614.19
2023-05-09T12:55:41.141Z,99607.69
2023-05-09T12:58:11.915Z,99617.38
2023-05-09T13:00:46.531Z,99614.16
2023-05-09T13:03:43.944Z,99618.91
2023-05-09T13:06:15.307Z,99620.41
2023-05-09T13:08:46.335Z,99612.38
2023-05-09T13:11:18.663Z,99601.44
2023-05-09T13:13:49.489Z,99587.56
2023-05-09T13:16:20.299Z,99593.78
2023-05-09T13:18:51.536Z,99590.78
2023-05-09T13:21:22.495Z,99574.50
2023-05-09T13:23:53.630Z,99566.72
2023-05-09T13:26:24.495Z,99558.41
2023-05-09T13:28:54.980Z,99579.13
2023-05-09T13:31:25.725Z,99595.59
2023-05-09T13:33:56.315Z,99580.22
2023-05-09T13:36:27.236Z,99587.03
2023-05-09T13:38:58.314Z,99582.63
2023-05-09T13:41:29.173Z,99593.19
2023-05-09T13:43:59.992Z,99585.56
2023-05-09T13:46:30.957Z,99592.66
2023-05-09T13:49:01.950Z,99587.03
2023-05-09T13:51:32.633Z,99580.84
2023-05-09T13:54:03.219Z,99575.91
2023-05-09T13:56:33.643Z,99571.09
2023-05-09T13:59:04.257Z,99567.47
2023-05-09T14:01:34.844Z,99560.84
2023-05-09T14:04:05.640Z,99558.91
2023-05-09T14:06:36.178Z,99552.41
2023-05-09T14:09:06.679Z,99542.63
2023-05-09T14:11:37.194Z,99546.16
2023-05-09T14:14:07.817Z,99531.56
2023-05-09T14:16:38.325Z,99529.19
2023-05-09T14:19:09.511Z,99532.38
2023-05-09T14:21:40.913Z,99532.28
2023-05-09T14:24:13.549Z,99523.81
2023-05-09T14:26:45.806Z,99520.31
2023-05-09T14:29:16.634Z,99518.41
2023-05-09T14:31:47.383Z,99512.88
2023-05-09T14:34:18.052Z,99513.06
2023-05-09T14:36:48.762Z,99503.84
2023-05-09T14:39:19.615Z,99492.66
2023-05-09T14:41:53.660Z,99496.59
2023-05-09T14:44:26.513Z,99474.69
2023-05-09T14:46:57.221Z,99475.09
2023-05-09T14:49:28.021Z,99467.75
2023-05-09T14:52:01.910Z,99465.56
2023-05-09T14:54:33.269Z,99476.22
2023-05-09T14:57:05.946Z,99484.56
2023-05-09T14:59:37.275Z,99478.22
2023-05-09T15:02:08.587Z,99474.38
2023-05-09T15:04:39.758Z,99478.69
2023-05-09T15:07:10.595Z,99471.19
2023-05-09T15:09:41.477Z,99476.59
2023-05-09T15:12:12.503Z,99483.75
2023-05-09T15:14:43.335Z,99470.47
2023-05-09T15:17:14.284Z,99462.66
2023-05-09T15:19:45.272Z,99463.88
2023-05-09T15:22:15.915Z,99455.50
2023-05-09T15:24:46.582Z,99457.22
2023-05-09T15:27:17.259Z,99457.53
2023-05-09T15:29:48.171Z,99449.88
2023-05-09T15:32:18.853Z,99435.34
2023-05-09T15:34:49.587Z,99442.03
2023-05-09T15:37:20.272Z,99430.88
2023-05-09T15:39:50.542Z,99420.13
2023-05-09T15:42:21.393Z,99425.38
2023-05-09T15:44:52.372Z,99415.91
2023-05-09T15:47:23.273Z,99407.25
2023-05-09T15:49:53.930Z,99403.56
2023-05-09T15:52:25.488Z,99405.47
2023-05-09T15:54:56.951Z,99418.41
2023-05-09T15:57:27.853Z,99409.88
2023-05-09T15:59:58.340Z,99412.00
2023-05-09T16:02:30.014Z,99414.19
2023-05-09T16:05:01.006Z,99408.19
2023-05-09T16:07:35.386Z,99407.97
2023-05-09T16:10:06.798Z,99403.66
2023-05-09T16:12:37.471Z,99397.44
2023-05-09T16:15:08.688Z,99393.72
2023-05-09T16:17:39.245Z,99389.41
2023-05-09T16:20:10.706Z,99392.72
2023-05-09T16:22:41.477Z,99384.41
2023-05-09T16:25:12.745Z,99375.53
2023-05-09T16:27:43.713Z,99372.34
2023-05-09T16:30:14.466Z,99375.34
2023-05-09T16:32:46.082Z,99376.16
2023-05-09T16:35:16.558Z,99380.06
2023-05-09T16:37:56.214Z,99389.19
2023-05-09T16:40:27.092Z,99379.16
2023-05-09T16:42:58.090Z,99383.28
2023-05-09T16:45:29.061Z,99367.63
2023-05-09T16:48:02.038Z,99358.38
2023-05-09T16:50:32.955Z,99347.03
2023-05-09T16:53:04.097Z,99347.75
2023-05-09T16:55:38.842Z,99344.53
2023-05-09T16:58:09.554Z,99348.38
2023-05-09T17:00:40.176Z,99347.75
2023-05-09T17:03:10.885Z,99344.53
2023-05-09T17:06:01.839Z,99338.94
2023-05-09T17:09:22.782Z,99333.59
2023-05-09T17:12:07.653Z,99339.81
2023-05-09T17:14:38.745Z,99332.78
2023-05-09T17:17:09.610Z,99339.72
2023-05-09T17:19:40.775Z,99328.06
2023-05-09T17:22:11.785Z,99324.56
2023-05-09T17:24:42.260Z,99328.38
2023-05-09T17:27:13.147Z,99321.84
2023-05-09T17:29:43.697Z,99322.75
2023-05-09T17:32:14.118Z,99331.50
2023-05-09T17:34:44.952Z,99321.72
2023-05-09T17:37:15.647Z,99312.22
2023-05-09T17:39:46.346Z,99307.81
2023-05-09T17:42:16.955Z,99300.06
2023-05-09T17:44:47.659Z,99300.38
2023-05-09T17:47:18.129Z,99293.03
2023-05-09T17:49:48.403Z,99280.50
2023-05-09T17:52:19.126Z,99282.09
2023-05-09T17:54:49.601Z,99276.28
2023-05-09T17:57:19.960Z,99271.69
2023-05-09T17:59:50.671Z,99281.00
2023-05-09T18:02:25.234Z,99279.41
2023-05-09T18:04:55.919Z,99279.41
2023-05-09T18:07:26.726Z,99270.50
2023-05-09T18:09:57.319Z,99274.19
2023-05-09T18:12:30.488Z,99270.69
2023-05-09T18:15:01.437Z,99266.66
2023-05-09T18:17:33.632Z,99271.41
2023-05-09T18:20:04.448Z,99270.19
2023-05-09T18:22:35.061Z,99267.56
2023-05-09T18:25:05.973Z,99252.22
2023-05-09T18:27:36.350Z,99262.44
2023-05-09T18:30:08.199Z,99255.00
2023-05-09T18:32:38.858Z,99245.19
2023-05-09T18:35:10.235Z,99240.34
2023-05-09T18:37:41.143Z,99233.81
2023-05-09T18:40:16.991Z,99232.03
2023-05-09T18:42:48.876Z,99218.47
2023-05-09T18:45:19.831Z,99225.69
2023-05-09T18:47:50.567Z,99220.03
2023-05-09T18:50:22.515Z,99218.09
2023-05-09T18:52:53.427Z,99208.47
2023-05-09T18:55:24.047Z,99205.75
2023-05-09T18:57:54.721Z,99199.28
2023-05-09T19:00:25.239Z,99195.47
2023-05-09T19:02:55.911Z,99202.53
2023-05-09T19:05:27.619Z,99187.03
2023-05-09T19:08:16.711Z,99174.06
2023-05-09T19:11:01.194Z,99170.81
2023-05-09T19:13:38.570Z,99170.00
2023-05-09T19:16:10.530Z,99165.25
2023-05-09T19:18:41.260Z,99170.50
2023-05-09T19:21:14.552Z,99155.72
2023-05-09T19:23:49.196Z,99152.53
2023-05-09T19:26:20.243Z,99147.22
2023-05-09T19:28:50.691Z,99142.91
2023-05-09T19:31:22.032Z,99156.75
2023-05-09T19:33:52.960Z,99158.34
2023-05-09T19:36:23.549Z,99162.38
2023-05-09T19:38:54.225Z,99150.28
2023-05-09T19:41:24.791Z,99145.78
2023-05-09T19:43:55.807Z,99137.72
2023-05-09T19:46:27.550Z,99137.03
2023-05-09T19:48:58.490Z,99117.84
2023-05-09T19:51:29.101Z,99111.03
2023-05-09T19:54:00.168Z,99096.34
2023-05-09T19:56:33.316Z,99088.22
2023-05-09T19:59:04.041Z,99081.69
2023-05-09T20:01:34.724Z,99093.06
2023-05-09T20:04:05.288Z,99108.13
2023-05-09T20:06:35.874Z,99104.59
2023-05-09T20:09:06.575Z,99098.38
2023-05-09T20:11:40.763Z,99081.63
2023-05-09T20:14:11.948Z,99092.69
2023-05-09T20:16:44.204Z,99081.50
2023-05-09T20:19:15.563Z,99068.56
2023-05-09T20:21:46.367Z,99067.28
2023-05-09T20:24:17.292Z,99070.00
2023-05-09T20:26:47.943Z,99069.66
2023-05-09T20:29:18.695Z,99081.03
2023-05-09T20:31:49.461Z,99070.66
2023-05-09T20:34:21.071Z,99068.91
2023-05-09T20:36:54.971Z,99065.50
2023-05-09T20:39:26.204Z,99068.34
2023-05-09T20:41:57.573Z,99070.59
2023-05-09T20:44:28.339Z,99064.72
2023-05-09T20:46:59.014Z,99061.66
2023-05-09T20:49:29.656Z,99059.28
2023-05-09T20:52:00.624Z,99054.84
2023-05-09T20:54:32.566Z,99056.13
2023-05-09T20:57:03.728Z,99059.00
2023-05-09T20:59:34.439Z,99037.75
2023-05-09T21:02:05.490Z,99050.84
2023-05-09T21:04:36.273Z,99085.50
2023-05-09T21:07:07.004Z,99105.28
2023-05-09T21:09:37.868Z,99092.50
2023-05-09T21:12:10.484Z,99118.19
2023-05-09T21:14:42.891Z,99130.50
2023-05-09T21:17:13.600Z,99146.09
2023-05-09T21:19:44.327Z,99152.91
2023-05-09T21:22:14.901Z,99153.34
2023-05-09T21:24:45.508Z,99155.41
2023-05-09T21:27:16.300Z,99146.19
2023-05-09T21:29:50.489Z,99145.41
2023-05-09T21:32:21.203Z,99143.03
2023-05-09T21:34:51.905Z,99160.78
2023-05-09T21:37:22.514Z,99160.22
2023-05-09T21:39:53.122Z,99158.31
2023-05-09T21:42:25.462Z,99161.03
2023-05-09T21:44:56.242Z,99176.63
2023-05-09T21:47:27.094Z,99177.09
2023-05-09T21:49:58.036Z,99174.25
2023-05-09T21:52:28.727Z,99182.94
2023-05-09T21:54:59.624Z,99181.28
2023-05-09T21:57:30.121Z,99178.16
2023-05-09T22:00:02.964Z,99170.78
2023-05-09T22:02:44.527Z,99154.03
2023-05-09T22:05:15.196Z,99148.75
2023-05-09T22:07:45.713Z,99128.25
2023-05-09T22:10:16.656Z,99111.38
2023-05-09T22:12:47.392Z,99117.47
2023-05-09T22:15:18.483Z,99110.28
2023-05-09T22:17:49.356Z,99115.72
2023-05-09T22:20:19.932Z,99126.28
2023-05-09T22:22:50.512Z,99143.63
2023-05-09T22:25:21.049Z,99168.31
2023-05-09T22:27:51.705Z,99178.34
2023-05-09T22:30:22.144Z,99188.38
2023-05-09T22:32:52.726Z,99188.94
2023-05-09T22:35:23.263Z,99186.66
2023-05-09T22:37:54.252Z,99168.81
2023-05-09T22:40:24.833Z,99175.88
2023-05-09T22:42:55.373Z,99184.13
2023-05-09T22:45:26.156Z,99187.94
2023-05-09T22:47:56.958Z,99192.88
2023-05-09T22:50:27.731Z,99210.34
2023-05-09T22:52:58.532Z,99234.06
2023-05-09T22:55:29.389Z,99271.28
2023-05-09T22:58:00.200Z,99263.75
2023-05-09T23:00:31.014Z,99272.50
2023-05-09T23:03:01.945Z,99289.44
2023-05-09T23:05:32.536Z,99295.69
2023-05-09T23:08:03.189Z,99301.66
2023-05-09T23:10:33.925Z,99327.75
2023-05-09T23:13:06.248Z,99316.22
2023-05-09T23:15:37.418Z,99296.31
2023-05-09T23:18:08.588Z,99293.88
2023-05-09T23:20:39.291Z,99288.50
2023-05-09T23:23:10.152Z,99293.03
2023-05-09T23:25:40.518Z,99281.00
2023-05-09T23:28:10.950Z,99277.94
2023-05-09T23:30:41.371Z,99286.75
2023-05-09T23:33:12.041Z,99289.72
2023-05-09T23:35:42.625Z,99280.59
2023-05-09T23:38:13.068Z,99273.28
2023-05-09T23:40:46.304Z,99290.28
2023-05-09T23:43:17.089Z,99304.13
2023-05-09T23:45:47.634Z,99315.50
2023-05-09T23:48:18.091Z,99317.13
2023-05-09T23:50:48.407Z,99328.97
2023-05-09T23:53:19.068Z,99320.78
2023-05-09T23:55:49.663Z,99333.44
2023-05-09T23:58:20.183Z,99324.44
